Time,TemperatureF,DewpointF,PressureIn,WindDirection,WindDirectionDegrees,WindSpeedMPH,WindSpeedGustMPH,Humidity,HourlyPrecipIn,Conditions,Clouds,dailyrainin,SolarRadiationWatts/m^2,SoftwareType,DateUTC
2014-12-20 00:02:00,28.6,20.7,30.14,NE,45,2.3,2.3,72,0.00,CLR,,0.00,0.0,WeatherDisplay:10.37,2014-12-20 05:02:00,
2014-12-20 00:07:00,28.6,20.7,30.15,NE,45,1.2,1.2,72,0.00,CLR,,0.00,0.0,WeatherDisplay:10.37,2014-12-20 05:07:00,
2014-12-20 00:12:00,28.6,20.7,30.15,East,90,2.3,2.3,72,0.00,CLR,,0.00,0.0,WeatherDisplay:10.37,2014-12-20 05:12:00,
2014-12-20 00:17:00,28.6,20.7,30.15,NE,45,1.2,0.0,72,0.00,CLR,,0.00,0.0,WeatherDisplay:10.37,2014-12-20 05:17:00,
2014-12-20 00:22:00,28.6,20.7,30.15,NE,45,2.3,2.3,72,0.00,CLR,,0.00,0.0,WeatherDisplay:10.37,2014-12-20 05:22:00,
2014-12-20 00:27:00,28.6,20.7,30.15,East,90,3.5,0.0,72,0.00,CLR,,0.00,0.0,WeatherDisplay:10.37,2014-12-20 05:27:00,
2014-12-20 00:32:00,28.6,20.7,30.15,East,90,1.2,0.0,72,0.00,CLR,,0.00,0.0,WeatherDisplay:10.37,2014-12-20 05:32:00,
2014-12-20 00:37:00,28.6,20.7,30.15,East,90,2.3,2.3,72,0.00,CLR,,0.00,0.0,WeatherDisplay:10.37,2014-12-20 05:37:00,
2014-12-20 00:42:00,28.6,20.7,30.15,East,90,1.2,0.0,72,0.00,CLR,,0.00,0.0,WeatherDisplay:10.37,2014-12-20 05:42:00,
2014-12-20 00:47:00,28.6,20.7,30.15,East,90,2.3,2.3,72,0.00,CLR,,0.00,0.0,WeatherDisplay:10.37,2014-12-20 05:47:00,
2014-12-20 00:52:00,28.4,20.5,30.15,NE,45,1.2,0.0,72,0.00,CLR,,0.00,0.0,WeatherDisplay:10.37,2014-12-20 05:52:00,
2014-12-20 00:57:00,28.4,20.5,30.15,East,90,1.2,0.0,72,0.00,CLR,,0.00,0.0,WeatherDisplay:10.37,2014-12-20 05:57:00,
2014-12-20 01:02:00,28.4,20.5,30.15,SE,135,1.2,1.2,72,0.00,CLR,,0.00,0.0,WeatherDisplay:10.37,2014-12-20 06:02:00,
2014-12-20 01:07:00,28.4,20.5,30.15,South,180,3.5,3.5,72,0.00,CLR,,0.00,0.0,WeatherDisplay:10.37,2014-12-20 06:07:00,
2014-12-20 01:12:00,28.4,20.5,30.15,NE,45,0.0,0.0,72,0.00,CLR,,0.00,0.0,WeatherDisplay:10.37,2014-12-20 06:12:00,
2014-12-20 01:17:00,28.4,20.5,30.14,North,0,2.3,2.3,72,0.00,CLR,,0.00,0.0,WeatherDisplay:10.37,2014-12-20 06:17:00,
2014-12-20 01:22:00,28.4,20.8,30.15,SE,135,1.2,1.2,73,0.00,CLR,,0.00,0.0,WeatherDisplay:10.37,2014-12-20 06:22:00,
2014-12-20 01:27:00,28.4,20.8,30.15,NE,45,1.2,0.0,73,0.00,CLR,,0.00,0.0,WeatherDisplay:10.37,2014-12-20 06:27:00,
2014-12-20 01:32:00,28.6,21.0,30.15,East,90,1.2,0.0,73,0.00,CLR,,0.00,0.0,WeatherDisplay:10.37,2014-12-20 06:32:00,
2014-12-20 01:37:00,28.4,20.5,30.15,NE,45,1.2,1.2,72,0.00,CLR,,0.00,0.0,WeatherDisplay:10.37,2014-12-20 06:37:00,
2014-12-20 01:42:00,28.4,20.5,30.15,NE,45,1.2,0.0,72,0.00,CLR,,0.00,0.0,WeatherDisplay:10.37,2014-12-20 06:42:00,
2014-12-20 01:47:00,28.6,20.7,30.16,East,90,1.2,0.0,72,0.00,CLR,,0.00,0.0,WeatherDisplay:10.37,2014-12-20 06:47:00,
2014-12-20 01:52:00,28.6,20.7,30.16,NE,45,1.2,0.0,72,0.00,CLR,,0.00,0.0,WeatherDisplay:10.37,2014-12-20 06:52:00,
2014-12-20 01:57:00,28.6,21.0,30.16,East,90,1.2,1.2,73,0.00,CLR,,0.00,0.0,WeatherDisplay:10.37,2014-12-20 06:57:00,
2014-12-20 02:02:00,28.6,21.0,30.16,East,90,1.2,0.0,73,0.00,CLR,,0.00,0.0,WeatherDisplay:10.37,2014-12-20 07:02:00,
2014-12-20 02:07:00,28.6,21.0,30.16,SE,135,2.3,2.3,73,0.00,CLR,,0.00,0.0,WeatherDisplay:10.37,2014-12-20 07:07:00,
2014-12-20 02:12:00,28.6,21.0,30.16,East,90,1.2,0.0,73,0.00,CLR,,0.00,0.0,WeatherDisplay:10.37,2014-12-20 07:12:00,
2014-12-20 02:17:00,28.6,21.0,30.17,East,90,1.2,1.2,73,0.00,CLR,,0.00,0.0,WeatherDisplay:10.37,2014-12-20 07:17:00,
2014-12-20 02:22:00,28.6,21.0,30.16,East,90,3.5,3.5,73,0.00,CLR,,0.00,0.0,WeatherDisplay:10.37,2014-12-20 07:22:00,
2014-12-20 02:27:00,28.4,20.8,30.17,SE,135,1.2,0.0,73,0.00,CLR,,0.00,0.0,WeatherDisplay:10.37,2014-12-20 07:27:00,
2014-12-20 02:32:00,28.6,21.0,30.17,East,90,1.2,0.0,73,0.00,CLR,,0.00,0.0,WeatherDisplay:10.37,2014-12-20 07:32:00,
2014-12-20 02:37:00,28.6,21.0,30.17,East,90,1.2,0.0,73,0.00,CLR,,0.00,0.0,WeatherDisplay:10.37,2014-12-20 07:37:00,
2014-12-20 02:42:00,28.6,21.0,30.17,South,180,1.2,0.0,73,0.00,CLR,,0.00,0.0,WeatherDisplay:10.37,2014-12-20 07:42:00,
2014-12-20 02:47:00,28.6,21.3,30.17,NE,45,1.2,0.0,74,0.00,CLR,,0.00,0.0,WeatherDisplay:10.37,2014-12-20 07:47:00,
2014-12-20 02:52:00,28.6,21.3,30.17,NE,45,0.0,0.0,74,0.00,CLR,,0.00,0.0,WeatherDisplay:10.37,2014-12-20 07:52:00,
2014-12-20 02:57:00,28.6,21.3,30.17,NE,45,0.0,0.0,74,0.00,CLR,,0.00,0.0,WeatherDisplay:10.37,2014-12-20 07:57:00,
2014-12-20 03:02:00,28.6,21.3,30.17,SE,135,1.2,0.0,74,0.00,CLR,,0.00,0.0,WeatherDisplay:10.37,2014-12-20 08:02:00,
2014-12-20 03:07:00,28.6,21.3,30.17,East,90,1.2,0.0,74,0.00,CLR,,0.00,0.0,WeatherDisplay:10.37,2014-12-20 08:07:00,
2014-12-20 03:12:00,28.6,21.3,30.17,NE,45,0.0,0.0,74,0.00,CLR,,0.00,0.0,WeatherDisplay:10.37,2014-12-20 08:12:00,
2014-12-20 03:17:00,28.6,21.3,30.17,NE,45,0.0,0.0,74,0.00,CLR,,0.00,0.0,WeatherDisplay:10.37,2014-12-20 08:17:00,
2014-12-20 03:22:00,28.6,21.3,30.17,NE,45,0.0,0.0,74,0.00,CLR,,0.00,0.0,WeatherDisplay:10.37,2014-12-20 08:22:00,
2014-12-20 03:27:00,28.6,21.7,30.16,NE,45,1.2,0.0,75,0.00,CLR,,0.00,0.0,WeatherDisplay:10.37,2014-12-20 08:27:00,
2014-12-20 03:32:00,28.6,21.7,30.16,NE,45,1.2,0.0,75,0.00,CLR,,0.00,0.0,WeatherDisplay:10.37,2014-12-20 08:32:00,
2014-12-20 03:37:00,28.6,21.7,30.16,NE,45,0.0,0.0,75,0.00,CLR,,0.00,0.0,WeatherDisplay:10.37,2014-12-20 08:37:00,
2014-12-20 03:42:00,28.6,21.7,30.17,NE,45,1.2,0.0,75,0.00,CLR,,0.00,0.0,WeatherDisplay:10.37,2014-12-20 08:42:00,
2014-12-20 03:47:00,28.6,21.7,30.17,East,90,1.2,0.0,75,0.00,CLR,,0.00,0.0,WeatherDisplay:10.37,2014-12-20 08:47:00,
2014-12-20 03:52:00,28.6,21.7,30.17,East,90,1.2,0.0,75,0.00,CLR,,0.00,0.0,WeatherDisplay:10.37,2014-12-20 08:52:00,
2014-12-20 03:57:00,28.6,21.7,30.16,East,90,0.0,0.0,75,0.00,CLR,,0.00,0.0,WeatherDisplay:10.37,2014-12-20 08:57:00,
2014-12-20 04:02:00,28.6,21.7,30.16,NW,315,0.0,0.0,75,0.00,CLR,,0.00,0.0,WeatherDisplay:10.37,2014-12-20 09:02:00,
2014-12-20 04:07:00,28.6,21.7,30.16,North,0,0.0,0.0,75,0.00,CLR,,0.00,0.0,WeatherDisplay:10.37,2014-12-20 09:07:00,
2014-12-20 04:12:00,28.6,21.7,30.16,NE,45,0.0,0.0,75,0.00,CLR,,0.00,0.0,WeatherDisplay:10.37,2014-12-20 09:12:00,
2014-12-20 04:17:00,28.6,21.7,30.16,NE,45,0.0,0.0,75,0.00,CLR,,0.00,0.0,WeatherDisplay:10.37,2014-12-20 09:17:00,
2014-12-20 04:22:00,28.6,21.7,30.16,North,0,0.0,0.0,75,0.00,CLR,,0.00,0.0,WeatherDisplay:10.37,2014-12-20 09:22:00,
2014-12-20 04:27:00,28.6,21.7,30.15,North,0,1.2,1.2,75,0.00,CLR,,0.00,0.0,WeatherDisplay:10.37,2014-12-20 09:27:00,
2014-12-20 04:32:00,28.6,21.7,30.16,NW,315,1.2,1.2,75,0.00,CLR,,0.00,0.0,WeatherDisplay:10.37,2014-12-20 09:32:00,
2014-12-20 04:37:00,28.6,21.7,30.15,North,0,1.2,0.0,75,0.00,CLR,,0.00,0.0,WeatherDisplay:10.37,2014-12-20 09:37:00,
2014-12-20 04:42:00,28.6,21.7,30.16,NW,315,0.0,0.0,75,0.00,CLR,,0.00,0.0,WeatherDisplay:10.37,2014-12-20 09:42:00,
2014-12-20 04:47:00,28.6,21.7,30.15,NE,45,0.0,0.0,75,0.00,CLR,,0.00,0.0,WeatherDisplay:10.37,2014-12-20 09:47:00,
2014-12-20 04:52:00,28.6,21.7,30.15,NE,45,0.0,0.0,75,0.00,CLR,,0.00,0.0,WeatherDisplay:10.37,2014-12-20 09:52:00,
2014-12-20 04:57:00,28.6,21.7,30.15,North,0,1.2,1.2,75,0.00,CLR,,0.00,0.0,WeatherDisplay:10.37,2014-12-20 09:57:00,
2014-12-20 05:02:00,28.6,21.7,30.15,NW,315,1.2,1.2,75,0.00,CLR,,0.00,0.0,WeatherDisplay:10.37,2014-12-20 10:02:00,
2014-12-20 05:07:00,28.6,21.7,30.14,North,0,1.2,1.2,75,0.00,CLR,,0.00,0.0,WeatherDisplay:10.37,2014-12-20 10:07:00,
2014-12-20 05:12:00,28.6,21.7,30.14,North,0,1.2,1.2,75,0.00,CLR,,0.00,0.0,WeatherDisplay:10.37,2014-12-20 10:12:00,
2014-12-20 05:17:00,28.6,21.7,30.15,North,0,1.2,1.2,75,0.00,CLR,,0.00,0.0,WeatherDisplay:10.37,2014-12-20 10:17:00,
2014-12-20 05:22:00,28.6,21.7,30.14,North,0,2.3,2.3,75,0.00,CLR,,0.00,0.0,WeatherDisplay:10.37,2014-12-20 10:22:00,
2014-12-20 05:27:00,28.6,21.7,30.15,North,0,1.2,1.2,75,0.00,CLR,,0.00,0.0,WeatherDisplay:10.37,2014-12-20 10:27:00,
2014-12-20 05:32:00,28.6,21.7,30.15,North,0,1.2,0.0,75,0.00,CLR,,0.00,0.0,WeatherDisplay:10.37,2014-12-20 10:32:00,
2014-12-20 05:37:00,28.6,21.7,30.15,North,0,0.0,0.0,75,0.00,CLR,,0.00,0.0,WeatherDisplay:10.37,2014-12-20 10:37:00,
2014-12-20 05:42:00,28.6,21.7,30.15,North,0,0.0,0.0,75,0.00,CLR,,0.00,0.0,WeatherDisplay:10.37,2014-12-20 10:42:00,
2014-12-20 05:47:00,28.8,22.1,30.15,NE,45,1.2,0.0,76,0.00,CLR,,0.00,0.0,WeatherDisplay:10.37,2014-12-20 10:47:00,
2014-12-20 05:52:00,28.8,22.1,30.15,NE,45,1.2,0.0,76,0.00,CLR,,0.00,0.0,WeatherDisplay:10.37,2014-12-20 10:52:00,
2014-12-20 05:57:00,28.8,22.1,30.15,North,0,1.2,0.0,76,0.00,CLR,,0.00,0.0,WeatherDisplay:10.37,2014-12-20 10:57:00,
2014-12-20 06:02:00,28.6,22.0,30.15,NE,45,1.2,0.0,76,0.00,CLR,,0.00,0.0,WeatherDisplay:10.37,2014-12-20 11:02:00,
2014-12-20 06:07:00,28.6,21.7,30.15,NE,45,0.0,0.0,75,0.00,CLR,,0.00,0.0,WeatherDisplay:10.37,2014-12-20 11:07:00,
2014-12-20 06:12:00,28.6,22.0,30.15,North,0,1.2,0.0,76,0.00,CLR,,0.00,0.0,WeatherDisplay:10.37,2014-12-20 11:12:00,
2014-12-20 06:17:00,28.6,22.0,30.15,North,0,0.0,0.0,76,0.00,CLR,,0.00,0.0,WeatherDisplay:10.37,2014-12-20 11:17:00,
2014-12-20 06:22:00,28.6,21.7,30.15,East,90,1.2,0.0,75,0.00,CLR,,0.00,0.0,WeatherDisplay:10.37,2014-12-20 11:22:00,
2014-12-20 06:27:00,28.6,21.7,30.15,NE,45,1.2,0.0,75,0.00,CLR,,0.00,0.0,WeatherDisplay:10.37,2014-12-20 11:27:00,
2014-12-20 06:32:00,28.6,21.7,30.16,NE,45,1.2,0.0,75,0.00,CLR,,0.00,0.0,WeatherDisplay:10.37,2014-12-20 11:32:00,
2014-12-20 06:37:00,28.6,21.7,30.16,NE,45,1.2,0.0,75,0.00,CLR,,0.00,0.0,WeatherDisplay:10.37,2014-12-20 11:37:00,
2014-12-20 06:42:00,28.6,21.7,30.16,NE,45,0.0,0.0,75,0.00,CLR,,0.00,0.0,WeatherDisplay:10.37,2014-12-20 11:42:00,
2014-12-20 06:47:00,28.6,21.7,30.16,NE,45,1.2,0.0,75,0.00,CLR,,0.00,0.0,WeatherDisplay:10.37,2014-12-20 11:47:00,
2014-12-20 06:52:00,28.6,21.7,30.17,NE,45,1.2,0.0,75,0.00,CLR,,0.00,0.0,WeatherDisplay:10.37,2014-12-20 11:52:00,
2014-12-20 06:57:00,28.6,21.7,30.17,East,90,1.2,0.0,75,0.00,CLR,,0.00,0.0,WeatherDisplay:10.37,2014-12-20 11:57:00,
2014-12-20 07:02:00,28.6,21.7,30.17,NE,45,1.2,0.0,75,0.00,CLR,,0.00,0.0,WeatherDisplay:10.37,2014-12-20 12:02:00,
2014-12-20 07:07:00,28.6,21.7,30.17,East,90,1.2,0.0,75,0.00,CLR,,0.00,0.0,WeatherDisplay:10.37,2014-12-20 12:07:00,
2014-12-20 07:12:00,28.6,21.7,30.17,East,90,0.0,0.0,75,0.00,CLR,,0.00,0.0,WeatherDisplay:10.37,2014-12-20 12:12:00,
2014-12-20 07:17:00,28.6,21.7,30.18,East,90,0.0,0.0,75,0.00,CLR,,0.00,0.0,WeatherDisplay:10.37,2014-12-20 12:17:00,
2014-12-20 07:22:00,28.6,21.7,30.18,NE,45,0.0,0.0,75,0.00,CLR,,0.00,0.0,WeatherDisplay:10.37,2014-12-20 12:22:00,
2014-12-20 07:27:00,28.6,21.7,30.17,NE,45,0.0,0.0,75,0.00,CLR,,0.00,0.0,WeatherDisplay:10.37,2014-12-20 12:27:00,
2014-12-20 07:32:00,28.6,21.7,30.17,NE,45,1.2,0.0,75,0.00,CLR,,0.00,0.0,WeatherDisplay:10.37,2014-12-20 12:32:00,
2014-12-20 07:37:00,28.6,22.0,30.17,NE,45,1.2,0.0,76,0.00,CLR,,0.00,0.0,WeatherDisplay:10.37,2014-12-20 12:37:00,
2014-12-20 07:42:00,28.8,22.1,30.17,NE,45,1.2,1.2,76,0.00,CLR,,0.00,0.0,WeatherDisplay:10.37,2014-12-20 12:42:00,
2014-12-20 07:47:00,28.8,22.1,30.17,NE,45,1.2,0.0,76,0.00,CLR,,0.00,0.0,WeatherDisplay:10.37,2014-12-20 12:47:00,
2014-12-20 07:52:00,28.8,22.1,30.17,North,0,1.2,0.0,76,0.00,CLR,,0.00,0.0,WeatherDisplay:10.37,2014-12-20 12:52:00,
2014-12-20 07:57:00,28.8,22.1,30.17,NE,45,1.2,0.0,76,0.00,CLR,,0.00,0.0,WeatherDisplay:10.37,2014-12-20 12:57:00,
2014-12-20 08:02:00,28.8,22.1,30.17,NE,45,2.3,2.3,76,0.00,CLR,,0.00,0.0,WeatherDisplay:10.37,2014-12-20 13:02:00,
2014-12-20 08:07:00,28.8,22.1,30.17,NW,315,1.2,0.0,76,0.00,CLR,,0.00,0.0,WeatherDisplay:10.37,2014-12-20 13:07:00,
2014-12-20 08:12:00,28.6,22.0,30.18,NE,45,1.2,0.0,76,0.00,CLR,,0.00,0.0,WeatherDisplay:10.37,2014-12-20 13:12:00,
2014-12-20 08:17:00,28.6,22.0,30.18,North,0,1.2,0.0,76,0.00,CLR,,0.00,0.0,WeatherDisplay:10.37,2014-12-20 13:17:00,
2014-12-20 08:22:00,28.6,22.0,30.17,North,0,1.2,1.2,76,0.00,CLR,,0.00,0.0,WeatherDisplay:10.37,2014-12-20 13:22:00,
2014-12-20 08:27:00,28.6,22.0,30.18,North,0,1.2,0.0,76,0.00,CLR,,0.00,0.0,WeatherDisplay:10.37,2014-12-20 13:27:00,
2014-12-20 08:32:00,28.8,22.1,30.18,NE,45,1.2,0.0,76,0.00,CLR,,0.00,0.0,WeatherDisplay:10.37,2014-12-20 13:32:00,
2014-12-20 08:37:00,28.8,22.1,30.18,North,0,1.2,1.2,76,0.00,CLR,,0.00,0.0,WeatherDisplay:10.37,2014-12-20 13:37:00,
2014-12-20 08:42:00,28.8,22.1,30.18,North,0,1.2,1.2,76,0.00,CLR,,0.00,0.0,WeatherDisplay:10.37,2014-12-20 13:42:00,
2014-12-20 08:47:00,28.8,22.1,30.18,NE,45,1.2,0.0,76,0.00,CLR,,0.00,0.0,WeatherDisplay:10.37,2014-12-20 13:47:00,
2014-12-20 08:52:00,28.8,22.1,30.18,NE,45,0.0,0.0,76,0.00,CLR,,0.00,0.0,WeatherDisplay:10.37,2014-12-20 13:52:00,
2014-12-20 08:57:00,28.9,22.3,30.18,NE,45,1.2,0.0,76,0.00,CLR,,0.00,0.0,WeatherDisplay:10.37,2014-12-20 13:57:00,
2014-12-20 09:02:00,28.9,22.3,30.18,North,0,1.2,0.0,76,0.00,CLR,,0.00,0.0,WeatherDisplay:10.37,2014-12-20 14:02:00,
2014-12-20 09:07:00,28.9,22.3,30.19,North,0,1.2,0.0,76,0.00,CLR,,0.00,0.0,WeatherDisplay:10.37,2014-12-20 14:07:00,
2014-12-20 09:12:00,29.1,22.5,30.19,North,0,1.2,0.0,76,0.00,CLR,,0.00,0.0,WeatherDisplay:10.37,2014-12-20 14:12:00,
2014-12-20 09:17:00,29.1,22.5,30.19,NW,315,2.3,2.3,76,0.00,CLR,,0.00,0.0,WeatherDisplay:10.37,2014-12-20 14:17:00,
2014-12-20 09:22:00,29.1,22.2,30.19,North,0,0.0,0.0,75,0.00,CLR,,0.00,0.0,WeatherDisplay:10.37,2014-12-20 14:22:00,
2014-12-20 09:27:00,29.3,22.4,30.19,NE,45,1.2,0.0,75,0.00,CLR,,0.00,0.0,WeatherDisplay:10.37,2014-12-20 14:27:00,
2014-12-20 09:32:00,29.3,22.4,30.19,North,0,1.2,1.2,75,0.00,CLR,,0.00,0.0,WeatherDisplay:10.37,2014-12-20 14:32:00,
2014-12-20 09:37:00,29.3,22.4,30.19,NE,45,1.2,0.0,75,0.00,CLR,,0.00,0.0,WeatherDisplay:10.37,2014-12-20 14:37:00,
2014-12-20 09:42:00,29.3,22.4,30.18,NE,45,1.2,1.2,75,0.00,CLR,,0.00,0.0,WeatherDisplay:10.37,2014-12-20 14:42:00,
2014-12-20 09:47:00,29.5,22.5,30.19,NE,45,0.0,0.0,75,0.00,CLR,,0.00,0.0,WeatherDisplay:10.37,2014-12-20 14:47:00,
2014-12-20 09:52:00,29.5,22.5,30.19,North,0,1.2,1.2,75,0.00,CLR,,0.00,0.0,WeatherDisplay:10.37,2014-12-20 14:52:00,
2014-12-20 09:57:00,29.5,22.5,30.19,NW,315,1.2,0.0,75,0.00,CLR,,0.00,0.0,WeatherDisplay:10.37,2014-12-20 14:57:00,
2014-12-20 10:02:00,29.5,22.5,30.18,North,0,1.2,1.2,75,0.00,CLR,,0.00,0.0,WeatherDisplay:10.37,2014-12-20 15:02:00,
2014-12-20 10:07:00,29.5,22.5,30.19,North,0,1.2,1.2,75,0.00,CLR,,0.00,0.0,WeatherDisplay:10.37,2014-12-20 15:07:00,
2014-12-20 10:12:00,29.5,22.5,30.19,NW,315,1.2,1.2,75,0.00,CLR,,0.00,0.0,WeatherDisplay:10.37,2014-12-20 15:12:00,
2014-12-20 10:17:00,29.5,22.2,30.19,NE,45,1.2,0.0,74,0.00,CLR,,0.00,0.0,WeatherDisplay:10.37,2014-12-20 15:17:00,
2014-12-20 10:22:00,29.5,22.2,30.18,North,0,1.2,0.0,74,0.00,CLR,,0.00,0.0,WeatherDisplay:10.37,2014-12-20 15:22:00,
2014-12-20 10:27:00,29.5,22.2,30.18,North,0,1.2,0.0,74,0.00,CLR,,0.00,0.0,WeatherDisplay:10.37,2014-12-20 15:27:00,
2014-12-20 10:32:00,29.7,22.7,30.18,NE,45,1.2,0.0,75,0.00,CLR,,0.00,0.0,WeatherDisplay:10.37,2014-12-20 15:32:00,
2014-12-20 10:37:00,29.7,22.7,30.18,NW,315,2.3,2.3,75,0.00,CLR,,0.00,0.0,WeatherDisplay:10.37,2014-12-20 15:37:00,
2014-12-20 10:42:00,29.8,22.6,30.18,NE,45,1.2,0.0,74,0.00,CLR,,0.00,0.0,WeatherDisplay:10.37,2014-12-20 15:42:00,
2014-12-20 10:47:00,29.8,22.6,30.18,NE,45,1.2,0.0,74,0.00,CLR,,0.00,0.0,WeatherDisplay:10.37,2014-12-20 15:47:00,
2014-12-20 10:52:00,29.7,22.4,30.19,NE,45,1.2,1.2,74,0.00,CLR,,0.00,0.0,WeatherDisplay:10.37,2014-12-20 15:52:00,
2014-12-20 10:57:00,29.5,21.9,30.19,East,90,1.2,0.0,73,0.00,CLR,,0.00,0.0,WeatherDisplay:10.37,2014-12-20 15:57:00,
2014-12-20 11:02:00,29.7,22.4,30.19,NE,45,1.2,0.0,74,0.00,CLR,,0.00,0.0,WeatherDisplay:10.37,2014-12-20 16:02:00,
2014-12-20 11:07:00,29.7,22.4,30.19,East,90,0.0,0.0,74,0.00,CLR,,0.00,0.0,WeatherDisplay:10.37,2014-12-20 16:07:00,
2014-12-20 11:12:00,29.7,22.4,30.19,North,0,1.2,0.0,74,0.00,CLR,,0.00,0.0,WeatherDisplay:10.37,2014-12-20 16:12:00,
2014-12-20 11:17:00,29.8,22.2,30.19,North,0,2.3,2.3,73,0.00,CLR,,0.00,0.0,WeatherDisplay:10.37,2014-12-20 16:17:00,
2014-12-20 11:22:00,29.8,22.2,30.18,NE,45,2.3,2.3,73,0.00,CLR,,0.00,0.0,WeatherDisplay:10.37,2014-12-20 16:22:00,
2014-12-20 11:27:00,29.8,22.2,30.18,NE,45,1.2,1.2,73,0.00,CLR,,0.00,0.0,WeatherDisplay:10.37,2014-12-20 16:27:00,
2014-12-20 11:32:00,29.8,22.2,30.18,East,90,2.3,2.3,73,0.00,CLR,,0.00,0.0,WeatherDisplay:10.37,2014-12-20 16:32:00,
2014-12-20 11:37:00,29.8,21.9,30.18,East,90,1.2,1.2,72,0.00,CLR,,0.00,0.0,WeatherDisplay:10.37,2014-12-20 16:37:00,
2014-12-20 11:42:00,29.8,21.9,30.17,NE,45,1.2,0.0,72,0.00,CLR,,0.00,0.0,WeatherDisplay:10.37,2014-12-20 16:42:00,
2014-12-20 11:47:00,29.8,21.9,30.17,South,180,3.5,3.5,72,0.00,CLR,,0.00,0.0,WeatherDisplay:10.37,2014-12-20 16:47:00,
2014-12-20 11:52:00,29.8,21.9,30.17,East,90,1.2,1.2,72,0.00,CLR,,0.00,0.0,WeatherDisplay:10.37,2014-12-20 16:52:00,
2014-12-20 11:57:00,29.8,21.9,30.17,NE,45,1.2,0.0,72,0.00,CLR,,0.00,0.0,WeatherDisplay:10.37,2014-12-20 16:57:00,
2014-12-20 12:02:00,30.2,21.9,30.17,North,0,1.2,0.0,71,0.00,CLR,,0.00,0.0,WeatherDisplay:10.37,2014-12-20 17:02:00,
2014-12-20 12:07:00,30.2,21.6,30.18,North,0,1.2,0.0,70,0.00,CLR,,0.00,0.0,WeatherDisplay:10.37,2014-12-20 17:07:00,
2014-12-20 12:12:00,30.2,21.6,30.17,ENE,68,1.2,0.0,70,0.00,CLR,,0.00,0.0,WeatherDisplay:10.37,2014-12-20 17:12:00,
2014-12-20 12:17:00,30.0,21.8,30.17,East,90,1.2,0.0,71,0.00,CLR,,0.00,0.0,WeatherDisplay:10.37,2014-12-20 17:17:00,
2014-12-20 12:22:00,29.8,21.2,30.17,South,180,3.5,3.5,70,0.00,CLR,,0.00,0.0,WeatherDisplay:10.37,2014-12-20 17:22:00,
2014-12-20 12:27:00,29.8,21.2,30.17,SE,135,1.2,1.2,70,0.00,CLR,,0.00,0.0,WeatherDisplay:10.37,2014-12-20 17:27:00,
2014-12-20 12:32:00,29.8,21.2,30.17,East,90,1.2,0.0,70,0.00,CLR,,0.00,0.0,WeatherDisplay:10.37,2014-12-20 17:32:00,
2014-12-20 12:37:00,30.0,21.4,30.17,South,180,1.2,1.2,70,0.00,CLR,,0.00,0.0,WeatherDisplay:10.37,2014-12-20 17:37:00,
2014-12-20 12:42:00,30.2,21.2,30.17,SW,225,0.0,0.0,69,0.00,CLR,,0.00,0.0,WeatherDisplay:10.37,2014-12-20 17:42:00,
2014-12-20 12:47:00,30.6,21.6,30.16,NW,315,1.2,0.0,69,0.00,CLR,,0.00,0.0,WeatherDisplay:10.37,2014-12-20 17:47:00,
2014-12-20 12:52:00,30.7,21.8,30.16,SE,135,1.2,0.0,69,0.00,CLR,,0.00,0.0,WeatherDisplay:10.37,2014-12-20 17:52:00,
2014-12-20 12:57:00,30.7,21.8,30.16,SE,135,1.2,1.2,69,0.00,CLR,,0.00,0.0,WeatherDisplay:10.37,2014-12-20 17:57:00,
2014-12-20 13:02:00,30.6,21.2,30.16,SE,135,1.2,1.2,68,0.00,CLR,,0.00,0.0,WeatherDisplay:10.37,2014-12-20 18:02:00,
2014-12-20 13:07:00,30.6,21.2,30.16,SE,135,1.2,0.0,68,0.00,CLR,,0.00,0.0,WeatherDisplay:10.37,2014-12-20 18:07:00,
2014-12-20 13:12:00,30.6,21.6,30.15,NE,45,1.2,0.0,69,0.00,CLR,,0.00,0.0,WeatherDisplay:10.37,2014-12-20 18:12:00,
2014-12-20 13:17:00,30.6,21.6,30.15,East,90,1.2,0.0,69,0.00,CLR,,0.00,0.0,WeatherDisplay:10.37,2014-12-20 18:17:00,
2014-12-20 13:22:00,30.6,21.6,30.15,North,0,1.2,0.0,69,0.00,CLR,,0.00,0.0,WeatherDisplay:10.37,2014-12-20 18:22:00,
2014-12-20 13:27:00,30.6,21.6,30.15,NE,45,2.3,0.0,69,0.00,CLR,,0.00,0.0,WeatherDisplay:10.37,2014-12-20 18:27:00,
2014-12-20 13:32:00,30.6,21.6,30.14,NE,45,1.2,0.0,69,0.00,CLR,,0.00,0.0,WeatherDisplay:10.37,2014-12-20 18:32:00,
2014-12-20 13:37:00,30.7,21.8,30.15,North,0,1.2,1.2,69,0.00,CLR,,0.00,0.0,WeatherDisplay:10.37,2014-12-20 18:37:00,
2014-12-20 13:42:00,30.7,21.8,30.15,North,0,2.3,2.3,69,0.00,CLR,,0.00,0.0,WeatherDisplay:10.37,2014-12-20 18:42:00,
2014-12-20 13:47:00,30.7,21.8,30.15,East,90,1.2,0.0,69,0.00,CLR,,0.00,0.0,WeatherDisplay:10.37,2014-12-20 18:47:00,
2014-12-20 13:52:00,30.7,21.8,30.15,North,0,1.2,1.2,69,0.00,CLR,,0.00,0.0,WeatherDisplay:10.37,2014-12-20 18:52:00,
2014-12-20 13:57:00,30.7,21.4,30.15,NW,315,1.2,0.0,68,0.00,CLR,,0.00,0.0,WeatherDisplay:10.37,2014-12-20 18:57:00,
2014-12-20 14:02:00,30.7,21.4,30.16,NW,315,2.3,2.3,68,0.00,CLR,,0.00,0.0,WeatherDisplay:10.37,2014-12-20 19:02:00,
2014-12-20 14:07:00,30.6,21.2,30.15,NW,315,1.2,0.0,68,0.00,CLR,,0.00,0.0,WeatherDisplay:10.37,2014-12-20 19:07:00,
2014-12-20 14:12:00,30.6,21.6,30.15,NNW,338,0.0,0.0,69,0.00,CLR,,0.00,0.0,WeatherDisplay:10.37,2014-12-20 19:12:00,
2014-12-20 14:17:00,30.7,21.8,30.14,NE,45,0.0,0.0,69,0.00,CLR,,0.00,0.0,WeatherDisplay:10.37,2014-12-20 19:17:00,
2014-12-20 14:22:00,30.7,21.8,30.14,North,0,1.2,0.0,69,0.00,CLR,,0.00,0.0,WeatherDisplay:10.37,2014-12-20 19:22:00,
2014-12-20 14:27:00,30.7,21.8,30.14,North,0,1.2,0.0,69,0.00,CLR,,0.00,0.0,WeatherDisplay:10.37,2014-12-20 19:27:00,
2014-12-20 14:32:00,30.9,21.9,30.15,West,270,1.2,0.0,69,0.00,CLR,,0.00,0.0,WeatherDisplay:10.37,2014-12-20 19:32:00,
2014-12-20 14:37:00,30.9,21.9,30.14,North,0,1.2,0.0,69,0.00,CLR,,0.00,0.0,WeatherDisplay:10.37,2014-12-20 19:37:00,
2014-12-20 14:42:00,30.9,21.9,30.14,North,0,1.2,0.0,69,0.00,CLR,,0.00,0.0,WeatherDisplay:10.37,2014-12-20 19:42:00,
2014-12-20 14:47:00,30.9,21.9,30.14,North,0,3.5,3.5,69,0.00,CLR,,0.00,0.0,WeatherDisplay:10.37,2014-12-20 19:47:00,
2014-12-20 14:52:00,30.9,21.9,30.15,NW,315,1.2,1.2,69,0.00,CLR,,0.00,0.0,WeatherDisplay:10.37,2014-12-20 19:52:00,
2014-12-20 14:57:00,30.7,21.8,30.15,NW,315,3.5,3.5,69,0.00,CLR,,0.00,0.0,WeatherDisplay:10.37,2014-12-20 19:57:00,
2014-12-20 15:02:00,30.6,21.6,30.14,North,0,2.3,2.3,69,0.00,CLR,,0.00,0.0,WeatherDisplay:10.37,2014-12-20 20:02:00,
2014-12-20 15:07:00,30.6,21.6,30.14,NW,315,1.2,0.0,69,0.00,CLR,,0.00,0.0,WeatherDisplay:10.37,2014-12-20 20:07:00,
2014-12-20 15:12:00,30.6,21.6,30.14,NW,315,1.2,0.0,69,0.00,CLR,,0.00,0.0,WeatherDisplay:10.37,2014-12-20 20:12:00,
2014-12-20 15:17:00,30.6,21.6,30.14,NW,315,2.3,2.3,69,0.00,CLR,,0.00,0.0,WeatherDisplay:10.37,2014-12-20 20:17:00,
2014-12-20 15:22:00,30.6,21.6,30.14,North,0,1.2,1.2,69,0.00,CLR,,0.00,0.0,WeatherDisplay:10.37,2014-12-20 20:22:00,
2014-12-20 15:27:00,30.6,21.6,30.14,NW,315,1.2,0.0,69,0.00,CLR,,0.00,0.0,WeatherDisplay:10.37,2014-12-20 20:27:00,
2014-12-20 15:32:00,30.6,21.6,30.14,North,0,1.2,0.0,69,0.00,CLR,,0.00,0.0,WeatherDisplay:10.37,2014-12-20 20:32:00,
2014-12-20 15:37:00,30.6,21.6,30.14,NE,45,1.2,0.0,69,0.00,CLR,,0.00,0.0,WeatherDisplay:10.37,2014-12-20 20:37:00,
2014-12-20 15:42:00,30.7,21.8,30.14,NE,45,1.2,0.0,69,0.00,CLR,,0.00,0.0,WeatherDisplay:10.37,2014-12-20 20:42:00,
2014-12-20 15:47:00,30.6,21.6,30.15,NE,45,1.2,0.0,69,0.00,CLR,,0.00,0.0,WeatherDisplay:10.37,2014-12-20 20:47:00,
2014-12-20 15:52:00,30.6,21.6,30.14,NE,45,1.2,1.2,69,0.00,CLR,,0.00,0.0,WeatherDisplay:10.37,2014-12-20 20:52:00,
2014-12-20 15:57:00,30.4,21.4,30.15,NE,45,1.2,0.0,69,0.00,CLR,,0.00,0.0,WeatherDisplay:10.37,2014-12-20 20:57:00,
2014-12-20 16:02:00,30.4,21.4,30.15,NW,315,0.0,0.0,69,0.00,CLR,,0.00,0.0,WeatherDisplay:10.37,2014-12-20 21:02:00,
2014-12-20 16:07:00,30.4,21.4,30.14,East,90,1.2,0.0,69,0.00,CLR,,0.00,0.0,WeatherDisplay:10.37,2014-12-20 21:07:00,
2014-12-20 16:12:00,30.4,21.4,30.15,NE,45,1.2,1.2,69,0.00,CLR,,0.00,0.0,WeatherDisplay:10.37,2014-12-20 21:12:00,
2014-12-20 16:17:00,30.4,21.4,30.15,NE,45,1.2,0.0,69,0.00,CLR,,0.00,0.0,WeatherDisplay:10.37,2014-12-20 21:17:00,
2014-12-20 16:22:00,30.4,21.8,30.15,NNW,338,1.2,1.2,70,0.00,CLR,,0.00,0.0,WeatherDisplay:10.37,2014-12-20 21:22:00,
2014-12-20 16:27:00,30.4,21.4,30.15,North,0,1.2,1.2,69,0.00,CLR,,0.00,0.0,WeatherDisplay:10.37,2014-12-20 21:27:00,
2014-12-20 16:32:00,30.4,21.4,30.16,North,0,1.2,0.0,69,0.00,CLR,,0.00,0.0,WeatherDisplay:10.37,2014-12-20 21:32:00,
2014-12-20 16:37:00,30.4,21.4,30.16,North,0,1.2,0.0,69,0.00,CLR,,0.00,0.0,WeatherDisplay:10.37,2014-12-20 21:37:00,
2014-12-20 16:42:00,30.4,21.4,30.16,North,0,1.2,1.2,69,0.00,CLR,,0.00,0.0,WeatherDisplay:10.37,2014-12-20 21:42:00,
2014-12-20 16:47:00,30.2,21.2,30.16,North,0,1.2,0.0,69,0.00,CLR,,0.00,0.0,WeatherDisplay:10.37,2014-12-20 21:47:00,
2014-12-20 16:52:00,30.4,21.4,30.16,North,0,0.0,0.0,69,0.00,CLR,,0.00,0.0,WeatherDisplay:10.37,2014-12-20 21:52:00,
2014-12-20 16:57:00,30.2,21.2,30.16,North,0,1.2,0.0,69,0.00,CLR,,0.00,0.0,WeatherDisplay:10.37,2014-12-20 21:57:00,
2014-12-20 17:02:00,30.2,21.6,30.16,North,0,1.2,0.0,70,0.00,CLR,,0.00,0.0,WeatherDisplay:10.37,2014-12-20 22:02:00,
2014-12-20 17:07:00,30.2,21.2,30.16,North,0,1.2,0.0,69,0.00,CLR,,0.00,0.0,WeatherDisplay:10.37,2014-12-20 22:07:00,
2014-12-20 17:12:00,30.2,21.2,30.16,North,0,1.2,0.0,69,0.00,CLR,,0.00,0.0,WeatherDisplay:10.37,2014-12-20 22:12:00,
2014-12-20 17:17:00,30.2,21.2,30.16,North,0,1.2,0.0,69,0.00,CLR,,0.00,0.0,WeatherDisplay:10.37,2014-12-20 22:17:00,
2014-12-20 17:22:00,30.2,21.2,30.16,North,0,0.0,0.0,69,0.00,CLR,,0.00,0.0,WeatherDisplay:10.37,2014-12-20 22:22:00,
2014-12-20 17:27:00,30.0,21.4,30.17,North,0,0.0,0.0,70,0.00,CLR,,0.00,0.0,WeatherDisplay:10.37,2014-12-20 22:27:00,
2014-12-20 17:32:00,30.0,21.4,30.17,West,270,0.0,0.0,70,0.00,CLR,,0.00,0.0,WeatherDisplay:10.37,2014-12-20 22:32:00,
2014-12-20 17:37:00,30.0,21.4,30.17,North,0,0.0,0.0,70,0.00,CLR,,0.00,0.0,WeatherDisplay:10.37,2014-12-20 22:37:00,
2014-12-20 17:42:00,30.0,21.4,30.17,NE,45,0.0,0.0,70,0.00,CLR,,0.00,0.0,WeatherDisplay:10.37,2014-12-20 22:42:00,
2014-12-20 17:47:00,30.0,21.4,30.17,NE,45,0.0,0.0,70,0.00,CLR,,0.00,0.0,WeatherDisplay:10.37,2014-12-20 22:47:00,
2014-12-20 17:52:00,30.0,21.4,30.17,NE,45,0.0,0.0,70,0.00,CLR,,0.00,0.0,WeatherDisplay:10.37,2014-12-20 22:52:00,
2014-12-20 17:57:00,30.0,21.4,30.17,NE,45,0.0,0.0,70,0.00,CLR,,0.00,0.0,WeatherDisplay:10.37,2014-12-20 22:57:00,
2014-12-20 18:02:00,30.0,21.4,30.18,NE,45,0.0,0.0,70,0.00,CLR,,0.00,0.0,WeatherDisplay:10.37,2014-12-20 23:02:00,
2014-12-20 18:07:00,30.0,21.4,30.17,NE,45,0.0,0.0,70,0.00,CLR,,0.00,0.0,WeatherDisplay:10.37,2014-12-20 23:07:00,
2014-12-20 18:12:00,30.0,21.4,30.17,NE,45,0.0,0.0,70,0.00,CLR,,0.00,0.0,WeatherDisplay:10.37,2014-12-20 23:12:00,
2014-12-20 18:17:00,30.0,21.4,30.17,NE,45,0.0,0.0,70,0.00,CLR,,0.00,0.0,WeatherDisplay:10.37,2014-12-20 23:17:00,
2014-12-20 18:22:00,30.0,21.4,30.17,NW,315,0.0,0.0,70,0.00,CLR,,0.00,0.0,WeatherDisplay:10.37,2014-12-20 23:22:00,
2014-12-20 18:27:00,30.0,21.4,30.17,NW,315,0.0,0.0,70,0.00,CLR,,0.00,0.0,WeatherDisplay:10.37,2014-12-20 23:27:00,
2014-12-20 18:32:00,30.0,21.4,30.17,NW,315,0.0,0.0,70,0.00,CLR,,0.00,0.0,WeatherDisplay:10.37,2014-12-20 23:32:00,
2014-12-20 18:37:00,30.0,21.4,30.17,NW,315,0.0,0.0,70,0.00,CLR,,0.00,0.0,WeatherDisplay:10.37,2014-12-20 23:37:00,
2014-12-20 18:42:00,30.0,21.4,30.17,East,90,0.0,0.0,70,0.00,CLR,,0.00,0.0,WeatherDisplay:10.37,2014-12-20 23:42:00,
2014-12-20 18:47:00,30.0,21.4,30.18,South,180,0.0,0.0,70,0.00,CLR,,0.00,0.0,WeatherDisplay:10.37,2014-12-20 23:47:00,
2014-12-20 18:52:00,30.0,21.8,30.18,SE,135,1.2,0.0,71,0.00,CLR,,0.00,0.0,WeatherDisplay:10.37,2014-12-20 23:52:00,
2014-12-20 18:57:00,30.0,21.8,30.18,SE,135,0.0,0.0,71,0.00,CLR,,0.00,0.0,WeatherDisplay:10.37,2014-12-20 23:57:00,
2014-12-20 19:02:00,30.0,22.1,30.18,East,90,1.2,0.0,72,0.00,CLR,,0.00,0.0,WeatherDisplay:10.37,2014-12-21 00:02:00,
2014-12-20 19:07:00,30.2,21.9,30.19,SE,135,0.0,0.0,71,0.00,CLR,,0.00,0.0,WeatherDisplay:10.37,2014-12-21 00:07:00,
2014-12-20 19:12:00,30.0,22.1,30.18,SE,135,2.3,2.3,72,0.00,CLR,,0.00,0.0,WeatherDisplay:10.37,2014-12-21 00:12:00,
2014-12-20 19:17:00,30.0,22.1,30.19,SE,135,1.2,0.0,72,0.00,CLR,,0.00,0.0,WeatherDisplay:10.37,2014-12-21 00:17:00,
2014-12-20 19:22:00,30.2,21.9,30.19,SE,135,1.2,0.0,71,0.00,CLR,,0.00,0.0,WeatherDisplay:10.37,2014-12-21 00:22:00,
2014-12-20 19:27:00,30.0,22.1,30.18,SE,135,1.2,0.0,72,0.00,CLR,,0.00,0.0,WeatherDisplay:10.37,2014-12-21 00:27:00,
2014-12-20 19:32:00,30.0,22.1,30.19,SE,135,1.2,0.0,72,0.00,CLR,,0.00,0.0,WeatherDisplay:10.37,2014-12-21 00:32:00,
2014-12-20 19:37:00,30.0,22.1,30.19,NE,45,0.0,0.0,72,0.00,CLR,,0.00,0.0,WeatherDisplay:10.37,2014-12-21 00:37:00,
2014-12-20 19:42:00,30.0,22.4,30.19,West,270,1.2,0.0,73,0.00,CLR,,0.00,0.0,WeatherDisplay:10.37,2014-12-21 00:42:00,
2014-12-20 19:47:00,30.0,22.4,30.19,West,270,0.0,0.0,73,0.00,CLR,,0.00,0.0,WeatherDisplay:10.37,2014-12-21 00:47:00,
2014-12-20 19:52:00,30.0,22.4,30.19,East,90,0.0,0.0,73,0.00,CLR,,0.00,0.0,WeatherDisplay:10.37,2014-12-21 00:52:00,
2014-12-20 19:57:00,29.8,22.2,30.19,East,90,0.0,0.0,73,0.00,CLR,,0.00,0.0,WeatherDisplay:10.37,2014-12-21 00:57:00,
2014-12-20 20:02:00,29.8,22.2,30.19,SE,135,1.2,0.0,73,0.00,CLR,,0.00,0.0,WeatherDisplay:10.37,2014-12-21 01:02:00,
2014-12-20 20:07:00,29.8,22.6,30.19,SE,135,0.0,0.0,74,0.00,CLR,,0.00,0.0,WeatherDisplay:10.37,2014-12-21 01:07:00,
2014-12-20 20:12:00,29.8,22.6,30.19,SE,135,0.0,0.0,74,0.00,CLR,,0.00,0.0,WeatherDisplay:10.37,2014-12-21 01:12:00,
2014-12-20 20:17:00,29.7,22.4,30.19,SE,135,0.0,0.0,74,0.00,CLR,,0.00,0.0,WeatherDisplay:10.37,2014-12-21 01:17:00,
2014-12-20 20:22:00,29.7,22.4,30.19,SE,135,0.0,0.0,74,0.00,CLR,,0.00,0.0,WeatherDisplay:10.37,2014-12-21 01:22:00,
2014-12-20 20:27:00,29.7,22.4,30.18,SE,135,0.0,0.0,74,0.00,CLR,,0.00,0.0,WeatherDisplay:10.37,2014-12-21 01:27:00,
2014-12-20 20:32:00,29.5,22.5,30.18,North,0,0.0,0.0,75,0.00,CLR,,0.00,0.0,WeatherDisplay:10.37,2014-12-21 01:32:00,
2014-12-20 20:37:00,29.3,22.4,30.18,North,0,0.0,0.0,75,0.00,CLR,,0.00,0.0,WeatherDisplay:10.37,2014-12-21 01:37:00,
2014-12-20 20:42:00,29.3,22.4,30.18,North,0,0.0,0.0,75,0.00,CLR,,0.00,0.0,WeatherDisplay:10.37,2014-12-21 01:42:00,
2014-12-20 20:47:00,29.1,22.2,30.18,SW,225,1.2,0.0,75,0.00,CLR,,0.00,0.0,WeatherDisplay:10.37,2014-12-21 01:47:00,
2014-12-20 20:52:00,29.1,22.2,30.18,SW,225,1.2,0.0,75,0.00,CLR,,0.00,0.0,WeatherDisplay:10.37,2014-12-21 01:52:00,
2014-12-20 20:57:00,28.9,22.0,30.19,SW,225,0.0,0.0,75,0.00,CLR,,0.00,0.0,WeatherDisplay:10.37,2014-12-21 01:57:00,
2014-12-20 21:02:00,28.8,21.8,30.19,SW,225,0.0,0.0,75,0.00,CLR,,0.00,0.0,WeatherDisplay:10.37,2014-12-21 02:02:00,
2014-12-20 21:07:00,28.6,22.0,30.19,SW,225,0.0,0.0,76,0.00,CLR,,0.00,0.0,WeatherDisplay:10.37,2014-12-21 02:07:00,
2014-12-20 21:12:00,28.6,22.0,30.19,SW,225,0.0,0.0,76,0.00,CLR,,0.00,0.0,WeatherDisplay:10.37,2014-12-21 02:12:00,
2014-12-20 21:17:00,28.4,21.8,30.18,SW,225,0.0,0.0,76,0.00,CLR,,0.00,0.0,WeatherDisplay:10.37,2014-12-21 02:17:00,
2014-12-20 21:22:00,28.0,20.2,30.18,SW,225,0.0,0.0,72,0.00,CLR,,0.00,0.0,WeatherDisplay:10.37,2014-12-21 02:22:00,
2014-12-20 21:27:00,28.0,20.2,30.19,SW,225,0.0,0.0,72,0.00,CLR,,0.00,0.0,WeatherDisplay:10.37,2014-12-21 02:27:00,
2014-12-20 21:32:00,28.0,20.2,30.18,SW,225,0.0,0.0,72,0.00,CLR,,0.00,0.0,WeatherDisplay:10.37,2014-12-21 02:32:00,
2014-12-20 21:37:00,28.0,20.5,30.18,East,90,0.0,0.0,73,0.00,CLR,,0.00,0.0,WeatherDisplay:10.37,2014-12-21 02:37:00,
2014-12-20 21:42:00,28.0,20.5,30.18,East,90,0.0,0.0,73,0.00,CLR,,0.00,0.0,WeatherDisplay:10.37,2014-12-21 02:42:00,
2014-12-20 21:47:00,27.9,20.3,30.18,East,90,0.0,0.0,73,0.00,CLR,,0.00,0.0,WeatherDisplay:10.37,2014-12-21 02:47:00,
2014-12-20 21:52:00,27.9,20.6,30.18,East,90,0.0,0.0,74,0.00,CLR,,0.00,0.0,WeatherDisplay:10.37,2014-12-21 02:52:00,
2014-12-20 21:57:00,27.9,20.6,30.18,East,90,0.0,0.0,74,0.00,CLR,,0.00,0.0,WeatherDisplay:10.37,2014-12-21 02:57:00,
2014-12-20 22:02:00,27.9,20.6,30.18,East,90,0.0,0.0,74,0.00,CLR,,0.00,0.0,WeatherDisplay:10.37,2014-12-21 03:02:00,
2014-12-20 22:07:00,27.9,20.6,30.17,East,90,0.0,0.0,74,0.00,CLR,,0.00,0.0,WeatherDisplay:10.37,2014-12-21 03:07:00,
2014-12-20 22:12:00,27.7,20.5,30.18,East,90,0.0,0.0,74,0.00,CLR,,0.00,0.0,WeatherDisplay:10.37,2014-12-21 03:12:00,
2014-12-20 22:17:00,27.7,20.5,30.18,East,90,0.0,0.0,74,0.00,CLR,,0.00,0.0,WeatherDisplay:10.37,2014-12-21 03:17:00,
2014-12-20 22:22:00,27.5,20.3,30.18,East,90,0.0,0.0,74,0.00,CLR,,0.00,0.0,WeatherDisplay:10.37,2014-12-21 03:22:00,
2014-12-20 22:27:00,27.3,20.1,30.18,East,90,0.0,0.0,74,0.00,CLR,,0.00,0.0,WeatherDisplay:10.37,2014-12-21 03:27:00,
2014-12-20 22:32:00,27.3,20.1,30.18,East,90,0.0,0.0,74,0.00,CLR,,0.00,0.0,WeatherDisplay:10.37,2014-12-21 03:32:00,
2014-12-20 22:37:00,27.3,20.1,30.18,East,90,0.0,0.0,74,0.00,CLR,,0.00,0.0,WeatherDisplay:10.37,2014-12-21 03:37:00,
2014-12-20 22:42:00,27.3,20.4,30.17,East,90,0.0,0.0,75,0.00,CLR,,0.00,0.0,WeatherDisplay:10.37,2014-12-21 03:42:00,
2014-12-20 22:47:00,27.3,20.4,30.18,East,90,0.0,0.0,75,0.00,CLR,,0.00,0.0,WeatherDisplay:10.37,2014-12-21 03:47:00,
2014-12-20 22:52:00,27.1,20.3,30.18,East,90,0.0,0.0,75,0.00,CLR,,0.00,0.0,WeatherDisplay:10.37,2014-12-21 03:52:00,
2014-12-20 22:57:00,27.1,20.3,30.18,North,0,0.0,0.0,75,0.00,CLR,,0.00,0.0,WeatherDisplay:10.37,2014-12-21 03:57:00,
2014-12-20 23:02:00,27.3,20.8,30.19,West,270,0.0,0.0,76,0.00,CLR,,0.00,0.0,WeatherDisplay:10.37,2014-12-21 04:02:00,
2014-12-20 23:07:00,27.1,20.6,30.19,West,270,0.0,0.0,76,0.00,CLR,,0.00,0.0,WeatherDisplay:10.37,2014-12-21 04:07:00,
2014-12-20 23:12:00,27.1,20.6,30.19,SW,225,0.0,0.0,76,0.00,CLR,,0.00,0.0,WeatherDisplay:10.37,2014-12-21 04:12:00,
2014-12-20 23:17:00,27.5,21.2,30.19,South,180,2.3,2.3,77,0.00,CLR,,0.00,0.0,WeatherDisplay:10.37,2014-12-21 04:17:00,
2014-12-20 23:22:00,27.7,21.7,30.19,South,180,2.3,2.3,78,0.00,CLR,,0.00,0.0,WeatherDisplay:10.37,2014-12-21 04:22:00,
2014-12-20 23:27:00,27.9,21.9,30.19,SSW,202,1.2,1.2,78,0.00,CLR,,0.00,0.0,WeatherDisplay:10.37,2014-12-21 04:27:00,
2014-12-20 23:32:00,27.9,22.2,30.19,South,180,1.2,0.0,79,0.00,CLR,,0.00,0.0,WeatherDisplay:10.37,2014-12-21 04:32:00,
2014-12-20 23:37:00,28.0,22.4,30.19,SW,225,1.2,0.0,79,0.00,CLR,,0.00,0.0,WeatherDisplay:10.37,2014-12-21 04:37:00,
2014-12-20 23:42:00,28.0,22.4,30.19,South,180,2.3,2.3,79,0.00,CLR,,0.00,0.0,WeatherDisplay:10.37,2014-12-21 04:42:00,